Home > Products > Valid Products > TAF

000
FTUS44 KMEG 230200 AAA
TAFMEM
TAF AMD
KMEM 230258Z 2303/2324 06004KT P6SM SKC
     FM231200 09005KT P6SM BKN250
     FM231800 02003KT P6SM BKN150 BKN250=



000
FTUS44 KMEG 222300
TAFTUP
TAF
KTUP 222330Z 2300/2324 04005KT P6SM SKC
     FM231500 05005KT P6SM BKN250=



000
FTUS44 KMEG 222300
TAFMKL
TAF
KMKL 222330Z 2300/2324 06002KT P6SM SKC
     FM231200 09003KT P6SM BKN250
     FM231800 35003KT P6SM BKN150 BKN250=



000
FTUS44 KMEG 222300
TAFJBR
TAF
KJBR 222330Z 2300/2324 05003KT P6SM SKC
     FM231200 08005KT P6SM BKN150 BKN250
     FM231800 VRB03KT P6SM SCT100 BKN150 BKN250=



000
FTUS44 KMEG 222300
TAFMEM
TAF
KMEM 222330Z 2300/2324 06004KT P6SM SKC
     FM231200 09005KT P6SM BKN250
     FM231800 02003KT P6SM BKN150 BKN250=



000
FTUS44 KMEG 222000 AAA
TAFMEM
TAF AMD
KMEM 222057Z 2221/2318 06008KT P6SM SKC
     FM230000 05005KT P6SM SKC
     FM231500 09005KT P6SM BKN250=



000
FTUS44 KMEG 221700
TAFMEM
TAF
KMEM 221723Z 2218/2318 05008KT P6SM SKC
     FM230000 05005KT P6SM SKC
     FM231500 09005KT P6SM BKN250=



000
FTUS44 KMEG 221700
TAFMKL
TAF
KMKL 221723Z 2218/2318 03009KT P6SM SKC
     FM230000 04003KT P6SM SKC
     FM231500 09005KT P6SM SKC=



000
FTUS44 KMEG 221700
TAFJBR
TAF
KJBR 221723Z 2218/2318 07009KT P6SM SKC
     FM230000 06003KT P6SM SKC
     FM231500 09005KT P6SM SCT250=



000
FTUS44 KMEG 221700
TAFTUP
TAF
KTUP 221723Z 2218/2318 05011KT P6SM SKC
     FM230000 04005KT P6SM SKC
     FM231500 08005KT P6SM SKC=



000
FTUS44 KMEG 221700
TAFJBR
TAF
KJBR 221723Z 2218/2318 07009KT P6SM SKC
     FM230000 06003KT P6SM SKC
     FM231500 09005KT P6SM SCT250=



000
FTUS44 KMEG 221700
TAFTUP
TAF
KTUP 221723Z 2218/2318 05011KT P6SM SKC
     FM230000 04005KT P6SM SKC
     FM231500 08005KT P6SM SKC=



000
FTUS44 KMEG 221700
TAFMEM
TAF
KMEM 221723Z 2218/2318 05008KT P6SM SKC
     FM230000 05005KT P6SM SKC
     FM231500 09005KT P6SM BKN250=



000
FTUS44 KMEG 221700
TAFMKL
TAF
KMKL 221723Z 2218/2318 03009KT P6SM SKC
     FM230000 04003KT P6SM SKC
     FM231500 09005KT P6SM SKC=



000
FTUS44 KMEG 221400 AAA
TAFMEM
TAF AMD
KMEM 221459Z 2215/2312 08009KT P6SM SKC
     FM230000 06003KT P6SM SKC=



000
FTUS44 KMEG 221300 AAA
TAFMKL
TAF AMD
KMKL 221317Z 2213/2312 00000KT P6SM SKC
     FM221500 03008KT P6SM SKC
     FM230000 05003KT P6SM SKC=



000
FTUS44 KMEG 221100
TAFMEM
TAF
KMEM 221120Z 2212/2312 07005KT P6SM SKC
     FM221500 04009KT P6SM SKC
     FM230000 06003KT P6SM SKC=



000
FTUS44 KMEG 221100
TAFJBR
TAF
KJBR 221120Z 2212/2312 04006KT P6SM SKC
     FM221500 06008KT P6SM SKC
     FM230000 06003KT P6SM SKC=



000
FTUS44 KMEG 221100
TAFTUP
TAF
KTUP 221120Z 2212/2312 04005KT P6SM SKC
     FM221500 06008KT P6SM SKC
     FM230000 04003KT P6SM SKC=



000
FTUS44 KMEG 221100
TAFMKL
TAF
KMKL 221120Z 2212/2312 00000KT 5SM BR SKC
      TEMPO 2212/2214 4SM BR
     FM221500 03008KT P6SM SKC
     FM230000 05003KT P6SM SKC=



000
FTUS44 KMEG 220900 AAA
TAFMEM
TAF AMD
KMEM 220901Z 2209/2306 07005KT P6SM SKC
     FM221500 04008KT P6SM SKC
     FM230000 06003KT P6SM SKC=



000
FTUS44 KMEG 220500
TAFMEM
TAF
KMEM 220523Z 2206/2306 00000KT P6SM SKC
     FM221500 04008KT P6SM SKC
     FM230000 06003KT P6SM SKC=



000
FTUS44 KMEG 220500
TAFMKL
TAF
KMKL 220523Z 2206/2306 03003KT P6SM SKC
      TEMPO 2209/2213 4SM BR
     FM221500 03008KT P6SM SKC
     FM230000 05003KT P6SM SKC=



000
FTUS44 KMEG 220500
TAFJBR
TAF
KJBR 220523Z 2206/2306 00000KT P6SM SKC
     FM221500 06007KT P6SM SKC
     FM230000 05003KT P6SM SKC=



000
FTUS44 KMEG 220500
TAFTUP
TAF
KTUP 220523Z 2206/2306 03003KT P6SM SKC
      TEMPO 2209/2213 4SM BR
     FM221500 06008KT P6SM SKC
     FM230000 04003KT P6SM SKC=



000
FTUS44 KMEG 220500
TAFMEM
TAF
KMEM 220523Z 2206/2306 00000KT P6SM SKC
     FM221500 04008KT P6SM SKC
     FM230000 06003KT P6SM SKC=



000
FTUS44 KMEG 220500
TAFMKL
TAF
KMKL 220523Z 2206/2306 03003KT P6SM SKC
      TEMPO 2209/2213 4SM BR
     FM221500 03008KT P6SM SKC
     FM230000 05003KT P6SM SKC=



000
FTUS44 KMEG 220500
TAFTUP
TAF
KTUP 220523Z 2206/2306 03003KT P6SM SKC
      TEMPO 2209/2213 4SM BR
     FM221500 06008KT P6SM SKC
     FM230000 04003KT P6SM SKC=



000
FTUS44 KMEG 220500
TAFJBR
TAF
KJBR 220523Z 2206/2306 00000KT P6SM SKC
     FM221500 06007KT P6SM SKC
     FM230000 05003KT P6SM SKC=



000
FTUS44 KMEG 220200 AAA
TAFMEM
TAF AMD
KMEM 220259Z 2203/2224 00000KT P6SM SKC
     FM221500 04008KT P6SM SKC=



000
FTUS44 KMEG 212300
TAFTUP
TAF
KTUP 212321Z 2200/2224 03003KT P6SM SKC
     FM221500 06008KT P6SM SKC=



000
FTUS44 KMEG 212300
TAFJBR
TAF
KJBR 212321Z 2200/2224 00000KT P6SM SKC
     FM221500 06007KT P6SM SKC=



000
FTUS44 KMEG 212300
TAFMEM
TAF
KMEM 212321Z 2200/2224 01006KT P6SM SKC
     FM220100 04003KT P6SM SKC
     FM221500 04008KT P6SM SKC=



000
FTUS44 KMEG 212300
TAFMKL
TAF
KMKL 212321Z 2200/2224 03003KT P6SM SKC
     FM221500 03008KT P6SM SKC=



000
FTUS44 KMEG 212300
TAFJBR
TAF
KJBR 212321Z 2200/2224 00000KT P6SM SKC
     FM221500 06007KT P6SM SKC=



000
FTUS44 KMEG 212300
TAFMKL
TAF
KMKL 212321Z 2200/2224 03003KT P6SM SKC
     FM221500 03008KT P6SM SKC=



000
FTUS44 KMEG 212300
TAFMEM
TAF
KMEM 212321Z 2200/2224 01006KT P6SM SKC
     FM220100 04003KT P6SM SKC
     FM221500 04008KT P6SM SKC=



000
FTUS44 KMEG 212300
TAFTUP
TAF
KTUP 212321Z 2200/2224 03003KT P6SM SKC
     FM221500 06008KT P6SM SKC=



000
FTUS44 KMEG 212000 AAA
TAFMEM
TAF AMD
KMEM 212058Z 2121/2218 01007KT P6SM SKC
     FM220300 04005KT P6SM SKC=



000
FTUS44 KMEG 211700
TAFMEM
TAF
KMEM 211729Z 2118/2218 03010KT P6SM SKC
     FM220300 04005KT P6SM SKC=



000
FTUS44 KMEG 211700
TAFJBR
TAF
KJBR 211729Z 2118/2218 00000KT P6SM SKC
     FM220900 04005KT P6SM SKC=



000
FTUS44 KMEG 211700
TAFTUP
TAF
KTUP 211729Z 2118/2218 03005KT P6SM SKC
     FM221500 03007KT P6SM SKC=



000
FTUS44 KMEG 211700
TAFMKL
TAF
KMKL 211729Z 2118/2218 03010KT P6SM SKC
     FM220000 01003KT P6SM SKC
     FM221200 04005KT P6SM SKC=



000
FTUS44 KMEG 211400 AAA
TAFMEM
TAF AMD
KMEM 211459Z 2115/2212 00000KT P6SM SKC
     FM220000 05004KT P6SM SKC=



000
FTUS44 KMEG 211200 AAA
TAFMKL
TAF AMD
KMKL 211235Z 2113/2212 00000KT 6SM BR BKN001
     FM211330 36006KT P6SM SKC
     FM220000 04003KT P6SM SKC=



000
FTUS44 KMEG 211100
TAFJBR
TAF
KJBR 211120Z 2112/2212 01006KT P6SM SKC
     FM220000 05004KT P6SM SKC=



000
FTUS44 KMEG 211100
TAFMKL
TAF
KMKL 211120Z 2112/2212 36006KT P6SM SKC
     FM220000 04003KT P6SM SKC=



000
FTUS44 KMEG 211100
TAFTUP
TAF
KTUP 211120Z 2112/2212 02006KT P6SM SCT050
     FM220000 04004KT P6SM SKC=



000
FTUS44 KMEG 211100
TAFMKL
TAF
KMKL 211120Z 2112/2212 36006KT P6SM SKC
     FM220000 04003KT P6SM SKC=



000
FTUS44 KMEG 211100
TAFMEM
TAF
KMEM 211120Z 2112/2212 01006KT P6SM SKC
     FM220000 05004KT P6SM SKC=



000
FTUS44 KMEG 211100
TAFJBR
TAF
KJBR 211120Z 2112/2212 01006KT P6SM SKC
     FM220000 05004KT P6SM SKC=



000
FTUS44 KMEG 211100
TAFTUP
TAF
KTUP 211120Z 2112/2212 02006KT P6SM SCT050
     FM220000 04004KT P6SM SKC=



000
FTUS44 KMEG 211100
TAFMEM
TAF
KMEM 211120Z 2112/2212 01006KT P6SM SKC
     FM220000 05004KT P6SM SKC=



000
FTUS44 KMEG 210800 AAA
TAFMEM
TAF AMD
KMEM 210859Z 2109/2206 00000KT P6SM SKC
     FM211500 02006KT P6SM SKC
     FM220000 VRB03KT P6SM SKC=



000
FTUS44 KMEG 210500
TAFJBR
TAF
KJBR 210524Z 2106/2206 VRB03KT P6SM SKC
     FM211500 03005KT P6SM SKC
     FM220000 VRB03KT P6SM SKC=



000
FTUS44 KMEG 210500
TAFTUP
TAF
KTUP 210524Z 2106/2206 00000KT P6SM SKC
      TEMPO 2110/2113 4SM BR
     FM211600 03006KT P6SM SKC
     FM220000 VRB03KT P6SM SKC=



000
FTUS44 KMEG 210500
TAFMKL
TAF
KMKL 210524Z 2106/2206 00000KT P6SM SKC
      TEMPO 2109/2113 2SM BCFG FEW001
     FM211600 35006KT P6SM SKC
     FM220000 VRB03KT P6SM SKC=



000
FTUS44 KMEG 210500
TAFMEM
TAF
KMEM 210524Z 2106/2206 00000KT P6SM SKC
     FM211500 02006KT P6SM SKC
     FM220000 VRB03KT P6SM SKC=



000
FTUS44 KMEG 210200 AAA
TAFMEM
TAF AMD
KMEM 210251Z 2103/2124 VRB02KT P6SM SKC
     FM211500 02006KT P6SM SKC=



000
FTUS44 KMEG 210200 AAA
TAFMEM
TAF AMD
KMEM 210251Z 2103/2124 VRB02KT P6SM SKC
     FM211500 02006KT P6SM SKC=



000
FTUS44 KMEG 202300
TAFJBR
TAF
KJBR 202327Z 2100/2124 21006KT P6SM FEW060
     FM210100 00000KT P6SM SKC
     FM211500 03005KT P6SM SKC=



000
FTUS44 KMEG 202300
TAFTUP
TAF
KTUP 202327Z 2100/2124 00000KT P6SM SKC
     FM211600 03006KT P6SM SKC=



000
FTUS44 KMEG 202300
TAFMEM
TAF
KMEM 202327Z 2100/2124 24004KT P6SM SCT080
     FM210100 VRB03KT P6SM SKC
     FM211500 02006KT P6SM SKC=



000
FTUS44 KMEG 202300
TAFMKL
TAF
KMKL 202327Z 2100/2124 22006KT P6SM SCT060
     FM210100 00000KT P6SM SKC
      TEMPO 2110/2113 2SM BCFG FEW001
     FM211600 35006KT P6SM SKC=



000
FTUS44 KMEG 202000 AAA
TAFMEM
TAF AMD
KMEM 202049Z 2021/2118 23006KT P6SM SCT080
     FM210100 VRB02KT P6SM SKC
     FM211500 03006KT P6SM SKC=



000
FTUS44 KMEG 201700
TAFJBR
TAF
KJBR 201721Z 2018/2118 24009KT P6SM BKN150
     FM210000 00000KT P6SM SKC
     FM211500 03005KT P6SM SKC=



000
FTUS44 KMEG 201700
TAFMKL
TAF
KMKL 201721Z 2018/2118 25006KT P6SM BKN100
     FM210100 00000KT P6SM SKC
      TEMPO 2110/2113 2SM BCFG FEW001
     FM211600 01006KT P6SM SKC=



000
FTUS44 KMEG 201700
TAFTUP
TAF
KTUP 201721Z 2018/2118 29005KT P6SM BKN250
     FM210000 00000KT P6SM FEW150
     FM211600 03006KT P6SM SKC=



000
FTUS44 KMEG 201700
TAFMEM
TAF
KMEM 201721Z 2018/2118 25006KT P6SM BKN100
     FM210100 VRB02KT P6SM SKC
     FM211500 03006KT P6SM SKC=



000
FTUS44 KMEG 201500 AAA
TAFMEM
TAF AMD
KMEM 201512Z 2015/2112 25006KT P6SM BKN120
     FM210100 01002KT P6SM SKC=



000
FTUS44 KMEG 201300 AAA
TAFMKL
TAF AMD
KMKL 201344Z 2014/2112 00000KT P6SM SCT250
     FM201400 22005KT P6SM BKN250
     FM210100 VRB02KT P6SM SKC=



000
FTUS44 KMEG 201100
TAFJBR
TAF
KJBR 201120Z 2012/2112 00000KT P6SM SCT120
     FM201400 23006KT P6SM BKN150
     FM210000 VRB03KT P6SM SCT200=



000
FTUS44 KMEG 201100
TAFMKL
TAF
KMKL 201120Z 2012/2112 00000KT P6SM SKC
      TEMPO 2012/2014 3SM BR
     FM201400 22005KT P6SM BKN250
     FM210100 VRB02KT P6SM SKC=



000
FTUS44 KMEG 201100
TAFTUP
TAF
KTUP 201120Z 2012/2112 VRB03KT P6SM SKC
     FM201400 20003KT P6SM BKN250
     FM210000 VRB02KT P6SM SCT200=



000
FTUS44 KMEG 201100
TAFMEM
TAF
KMEM 201120Z 2012/2112 00000KT P6SM FEW140
     FM202100 26006KT P6SM BKN100
     FM210100 01002KT P6SM SKC=



000
FTUS44 KMEG 201000 AAC
TAFMKL
TAF AMD
KMKL 201018Z 2010/2106 00000KT P6SM SKC
      TEMPO 2010/2014 3SM BR
     FM201400 22005KT P6SM BKN250
     FM210100 00000KT P6SM SKC=



000
FTUS44 KMEG 201000 AAC
TAFMKL
TAF AMD
KMKL 201018Z 2010/2106 00000KT P6SM SKC
      TEMPO 2010/2014 3SM BR
     FM201400 22005KT P6SM BKN250
     FM210100 00000KT P6SM SKC=



000
FTUS44 KMEG 200900 AAB
TAFMKL
TAF AMD
KMKL 200913Z 2009/2106 00000KT 5SM BR SKC
      TEMPO 2010/2014 1SM BR
     FM201400 22005KT P6SM BKN250
     FM210100 00000KT P6SM SKC=



000
FTUS44 KMEG 200900 AAB
TAFMEM
TAF AMD
KMEM 200902Z 2009/2106 00000KT P6SM SKC
     FM201400 22006KT P6SM BKN200
     FM210100 21002KT P6SM SCT250=



000
FTUS44 KMEG 200800 AAA
TAFJBR
TAF AMD
KJBR 200811Z 2008/2106 00000KT P6SM SKC
     FM201400 23006KT P6SM BKN150
     FM210000 22003KT P6SM SCT200=



000
FTUS44 KMEG 200800 AAA
TAFMEM
TAF AMD
KMEM 200810Z 2008/2106 00000KT P6SM SKC
     FM201400 22006KT P6SM BKN200
     FM210100 21002KT P6SM SCT250=



000
FTUS44 KMEG 200800 AAA
TAFMEM
TAF AMD
KMEM 200810Z 2008/2106 00000KT P6SM SKC
     FM201400 22006KT P6SM BKN200
     FM210100 21002KT P6SM SCT250=



000
FTUS44 KMEG 200800 AAA
TAFMKL
TAF AMD
KMKL 200810Z 2008/2106 00000KT P6SM SKC
      TEMPO 2010/2013 3SM BR
     FM201400 22005KT P6SM BKN250
     FM210100 00000KT P6SM SKC=



000
FTUS44 KMEG 200500
TAFJBR
TAF
KJBR 200523Z 2006/2106 20002KT P6SM BKN250
     FM201400 23006KT P6SM BKN150
     FM210000 22003KT P6SM SCT200
      AMD NOT SKED=



000
FTUS44 KMEG 200500
TAFMEM
TAF
KMEM 200523Z 2006/2106 15003KT P6SM SCT250
     FM201400 22006KT P6SM BKN200
     FM210100 21002KT P6SM SCT250
      AMD NOT SKED=



000
FTUS44 KMEG 200500
TAFMKL
TAF
KMKL 200523Z 2006/2106 00000KT P6SM SCT250
      TEMPO 2010/2013 3SM BR
     FM201400 22005KT P6SM BKN250
     FM210100 00000KT P6SM SKC
      AMD NOT SKED=



000
FTUS44 KMEG 200500
TAFTUP
TAF
KTUP 200523Z 2006/2106 00000KT P6SM SCT250
     FM201400 20003KT P6SM BKN250
     FM210000 22003KT P6SM SCT200=



    US Dept of Commerce
    National Oceanic and Atmospheric Administration
    National Weather Service
    1325 East West Highway
    Silver Spring, MD 20910
    Page Author: NWS Internet Services Team
Disclaimer
Information Quality
Credits
Glossary
Privacy Policy
Freedom of Information Act (FOIA)
About Us
Career Opportunities